Time;durP1;ratioP1;P1;durP2;ratioP2;P2;SDS_P1;SDS_P2;PMS_P1;PMS_P2;Temp;Humidity;BMP_temperature;BMP_pressure;BME280_temperature;BME280_humidity;BME280_pressure;Samples;Min_cycle;Max_cycle;Signal;HPM_P1;HPM_P2
2024/01/15 00:01:21;;;;;;;;;;;3.60;99.10;;;;;;5068483;28;20680;-77
2024/01/15 00:03:46;;;;;;;;;;;3.50;99.30;;;;;;5096877;28;20297;-76
2024/01/15 00:06:12;;;;;;;;;;;3.60;99.40;;;;;;5084083;28;19928;-77
2024/01/15 00:08:38;;;;;;;;;;;3.50;99.40;;;;;;5101427;28;19981;-77
2024/01/15 00:11:03;;;;;;;;;;;3.80;99.60;;;;;;5103061;28;20394;-77
2024/01/15 00:13:29;;;;;;;;;;;3.80;99.50;;;;;;5083622;28;20430;-77
2024/01/15 00:15:54;;;;;;;;;;;3.60;99.50;;;;;;5050832;28;20061;-77
2024/01/15 00:18:20;;;;;;;;;;;3.50;99.80;;;;;;5083638;28;19943;-77
2024/01/15 00:20:45;;;;;;;;;;;3.80;99.90;;;;;;5082325;28;19928;-77
2024/01/15 00:23:11;;;;;;;;;;;3.40;99.90;;;;;;5082384;28;19927;-78
2024/01/15 00:25:37;;;;;;;;;;;3.40;99.90;;;;;;5066729;28;19928;-77
2024/01/15 00:28:03;;;;;;;;;;;3.60;99.90;;;;;;5098710;27;19927;-77
2024/01/15 00:30:28;;;;;;;;;;;3.30;99.40;;;;;;5064414;28;20370;-77
2024/01/15 00:33:00;;;;;;;;;;;4.30;99.90;;;;;;5080760;28;20314;-77
2024/01/15 00:35:25;;;;;;;;;;;3.50;99.90;;;;;;5066178;28;19928;-77
2024/01/15 00:37:51;;;;;;;;;;;3.30;99.90;;;;;;5081114;27;20961;-75
2024/01/15 00:40:17;;;;;;;;;;;2.90;99.90;;;;;;5081747;27;19927;-77
2024/01/15 00:42:42;;;;;;;;;;;3.40;99.90;;;;;;5099559;27;19927;-77
2024/01/15 00:45:08;;;;;;;;;;;3.30;99.90;;;;;;5064433;28;19977;-77
2024/01/15 00:47:34;;;;;;;;;;;3.40;99.90;;;;;;5081309;28;19924;-77
2024/01/15 00:50:00;;;;;;;;;;;3.60;99.90;;;;;;5080119;28;19932;-77
2024/01/15 00:52:26;;;;;;;;;;;3.40;99.90;;;;;;5081132;28;19939;-76
2024/01/15 00:54:51;;;;;;;;;;;3.30;99.90;;;;;;5081651;28;19978;-77
2024/01/15 00:57:18;;;;;;;;;;;4.00;99.90;;;;;;5082816;28;20557;-77
2024/01/15 00:59:44;;;;;;;;;;;3.30;99.90;;;;;;5080728;28;19932;-77
2024/01/15 01:02:10;;;;;;;;;;;3.30;99.90;;;;;;5084564;28;19940;-77
2024/01/15 01:04:36;;;;;;;;;;;3.40;99.90;;;;;;5082994;28;20006;-77
2024/01/15 01:07:01;;;;;;;;;;;3.50;99.90;;;;;;5048616;28;20060;-78
2024/01/15 01:09:29;;;;;;;;;;;3.80;99.90;;;;;;5062705;28;20562;-78
2024/01/15 01:11:55;;;;;;;;;;;4.60;99.90;;;;;;5079020;28;19924;-76
2024/01/15 01:14:21;;;;;;;;;;;3.40;99.90;;;;;;5078992;28;19980;-78
2024/01/15 01:16:47;;;;;;;;;;;3.30;99.90;;;;;;5080945;28;19932;-77
2024/01/15 01:19:12;;;;;;;;;;;3.50;99.90;;;;;;5083580;28;20534;-77
2024/01/15 01:21:38;;;;;;;;;;;3.70;99.90;;;;;;5080786;28;19934;-76
2024/01/15 01:24:04;;;;;;;;;;;3.60;99.90;;;;;;5081661;28;20033;-77
2024/01/15 01:26:30;;;;;;;;;;;3.50;99.90;;;;;;5061736;28;19932;-77
2024/01/15 01:28:55;;;;;;;;;;;3.80;99.90;;;;;;5082654;28;19928;-76
2024/01/15 01:31:24;;;;;;;;;;;3.40;99.90;;;;;;5099918;28;19934;-76
2024/01/15 01:33:49;;;;;;;;;;;3.40;99.90;;;;;;5065703;28;20401;-76
2024/01/15 01:36:15;;;;;;;;;;;3.30;99.90;;;;;;5065422;28;19927;-76
2024/01/15 01:38:41;;;;;;;;;;;4.40;99.90;;;;;;5081169;28;19931;-77
2024/01/15 01:41:08;;;;;;;;;;;3.20;99.90;;;;;;5063792;28;20376;-76
2024/01/15 01:43:33;;;;;;;;;;;3.10;99.90;;;;;;5098056;28;19980;-77
2024/01/15 01:46:00;;;;;;;;;;;3.20;99.90;;;;;;5079661;28;19928;-77
2024/01/15 01:48:26;;;;;;;;;;;3.00;99.90;;;;;;5098618;28;20326;-77
2024/01/15 01:50:56;;;;;;;;;;;3.10;99.90;;;;;;5081005;28;19935;-76
2024/01/15 01:53:23;;;;;;;;;;;3.40;99.90;;;;;;5093518;28;19932;-76
2024/01/15 01:55:48;;;;;;;;;;;3.30;99.90;;;;;;5080018;28;19928;-77
2024/01/15 01:58:14;;;;;;;;;;;3.20;99.90;;;;;;5080678;28;19932;-77
2024/01/15 02:00:40;;;;;;;;;;;3.20;99.90;;;;;;5080979;28;19928;-76
2024/01/15 02:03:06;;;;;;;;;;;3.30;99.90;;;;;;5079017;28;19924;-77
2024/01/15 02:05:31;;;;;;;;;;;3.20;99.90;;;;;;5081935;28;19935;-78
2024/01/15 02:07:57;;;;;;;;;;;3.30;99.90;;;;;;5079177;28;19929;-77
2024/01/15 02:10:23;;;;;;;;;;;3.50;99.90;;;;;;5063366;28;19927;-77
2024/01/15 02:12:48;;;;;;;;;;;3.80;99.90;;;;;;5079145;28;19928;-77
2024/01/15 02:15:14;;;;;;;;;;;3.40;99.90;;;;;;5081090;28;19928;-77
2024/01/15 02:17:59;;;;;;;;;;;3.40;99.90;;;;;;5078749;28;19984;-77
2024/01/15 02:20:25;;;;;;;;;;;3.40;99.90;;;;;;5063580;28;20315;-77
2024/01/15 02:22:51;;;;;;;;;;;3.40;99.90;;;;;;5079712;28;19930;-77
2024/01/15 02:25:18;;;;;;;;;;;3.40;99.90;;;;;;5080095;28;20297;-77
2024/01/15 02:27:46;;;;;;;;;;;4.00;99.90;;;;;;5078381;28;19928;-77
2024/01/15 02:30:12;;;;;;;;;;;3.50;99.90;;;;;;5080796;28;19932;-77
2024/01/15 02:32:38;;;;;;;;;;;3.50;99.90;;;;;;5079070;28;20059;-77
2024/01/15 02:35:04;;;;;;;;;;;3.30;99.90;;;;;;5081444;28;19924;-77
2024/01/15 02:37:31;;;;;;;;;;;3.50;99.90;;;;;;5078041;28;20350;-77
2024/01/15 02:39:56;;;;;;;;;;;3.50;99.90;;;;;;5099079;27;19928;-76
2024/01/15 02:42:22;;;;;;;;;;;3.40;99.90;;;;;;5066661;28;19920;-77
2024/01/15 02:44:48;;;;;;;;;;;3.40;99.90;;;;;;5081666;28;19965;-77
2024/01/15 02:47:14;;;;;;;;;;;3.90;99.90;;;;;;5082492;28;19931;-77
2024/01/15 02:49:40;;;;;;;;;;;3.50;99.90;;;;;;5081314;28;20344;-77
2024/01/15 02:52:08;;;;;;;;;;;3.50;99.90;;;;;;5101881;27;20028;-77
2024/01/15 02:54:34;;;;;;;;;;;3.40;99.90;;;;;;5085377;28;19930;-77
2024/01/15 02:57:00;;;;;;;;;;;4.10;99.90;;;;;;5084632;28;19934;-77
2024/01/15 02:59:25;;;;;;;;;;;3.30;99.90;;;;;;5081426;28;20594;-77
2024/01/15 03:01:51;;;;;;;;;;;3.20;99.90;;;;;;5083477;28;19928;-77
2024/01/15 03:04:16;;;;;;;;;;;4.40;99.90;;;;;;5081583;28;19932;-77
2024/01/15 03:06:42;;;;;;;;;;;3.10;99.90;;;;;;5065205;28;20327;-76
2024/01/15 03:09:08;;;;;;;;;;;3.30;99.90;;;;;;5080337;28;20394;-77
2024/01/15 03:11:40;;;;;;;;;;;3.20;99.90;;;;;;5082306;28;20524;-76
2024/01/15 03:14:06;;;;;;;;;;;3.30;99.90;;;;;;5082991;28;19935;-77
2024/01/15 03:16:31;;;;;;;;;;;3.30;99.90;;;;;;5103028;27;19928;-76
2024/01/15 03:18:57;;;;;;;;;;;3.30;99.90;;;;;;5081048;28;20018;-77
2024/01/15 03:21:22;;;;;;;;;;;3.40;99.90;;;;;;5081205;27;19977;-76
2024/01/15 03:23:51;;;;;;;;;;;3.60;99.90;;;;;;5100957;27;20085;-77
2024/01/15 03:26:17;;;;;;;;;;;3.60;99.90;;;;;;5083293;28;19934;-77
2024/01/15 03:28:42;;;;;;;;;;;3.60;99.90;;;;;;5081869;27;19999;-77
2024/01/15 03:31:08;;;;;;;;;;;3.40;99.60;;;;;;5080003;28;20294;-77
2024/01/15 03:33:33;;;;;;;;;;;3.40;99.50;;;;;;5080961;28;19939;-76
2024/01/15 03:35:59;;;;;;;;;;;3.40;99.80;;;;;;5083212;28;19927;-77
2024/01/15 03:38:26;;;;;;;;;;;3.70;99.90;;;;;;5064758;28;19928;-77
2024/01/15 03:40:52;;;;;;;;;;;3.10;99.90;;;;;;5096756;27;19942;-77
2024/01/15 03:43:18;;;;;;;;;;;3.20;99.90;;;;;;5084427;27;19931;-77
2024/01/15 03:45:44;;;;;;;;;;;3.10;99.90;;;;;;5081396;28;19928;-77
2024/01/15 03:48:10;;;;;;;;;;;3.00;99.90;;;;;;5082876;28;19928;-76
2024/01/15 03:50:36;;;;;;;;;;;2.90;99.90;;;;;;5082787;28;20307;-77
2024/01/15 03:53:02;;;;;;;;;;;2.80;99.90;;;;;;5063478;27;19966;-77
2024/01/15 03:55:27;;;;;;;;;;;2.80;99.90;;;;;;5081432;28;19932;-77
2024/01/15 03:57:53;;;;;;;;;;;2.80;99.90;;;;;;5101771;27;19945;-77
2024/01/15 04:00:19;;;;;;;;;;;2.70;99.90;;;;;;5084010;28;19935;-77
2024/01/15 04:02:44;;;;;;;;;;;2.60;99.90;;;;;;5083558;28;19948;-76
2024/01/15 04:05:10;;;;;;;;;;;4.00;99.90;;;;;;5082908;27;19927;-77
2024/01/15 04:07:36;;;;;;;;;;;2.60;99.90;;;;;;5082078;28;19962;-77
2024/01/15 04:10:01;;;;;;;;;;;2.70;99.90;;;;;;5082274;28;19931;-77
2024/01/15 04:12:27;;;;;;;;;;;2.60;99.90;;;;;;5080833;28;20439;-77
2024/01/15 04:14:53;;;;;;;;;;;2.50;99.90;;;;;;5081840;28;19927;-77
2024/01/15 04:17:18;;;;;;;;;;;2.50;99.90;;;;;;5050057;28;19928;-76
2024/01/15 04:19:44;;;;;;;;;;;3.30;99.90;;;;;;5081783;28;20287;-76
2024/01/15 04:22:10;;;;;;;;;;;2.50;99.90;;;;;;5065317;27;20000;-77
2024/01/15 04:24:35;;;;;;;;;;;2.90;99.90;;;;;;5084034;28;19936;-76
2024/01/15 04:27:01;;;;;;;;;;;2.40;99.90;;;;;;5086987;28;19931;-76
2024/01/15 04:29:26;;;;;;;;;;;2.20;99.90;;;;;;5084186;28;19928;-77
2024/01/15 04:31:53;;;;;;;;;;;2.80;99.90;;;;;;5100537;27;20247;-77
2024/01/15 04:34:18;;;;;;;;;;;2.30;99.90;;;;;;5098954;27;19931;-76
2024/01/15 04:36:45;;;;;;;;;;;2.30;99.90;;;;;;5081391;28;19928;-76
2024/01/15 04:39:11;;;;;;;;;;;3.70;99.90;;;;;;5080003;28;19933;-77
2024/01/15 04:41:37;;;;;;;;;;;2.50;99.90;;;;;;5080422;28;19931;-76
2024/01/15 04:44:03;;;;;;;;;;;2.50;99.90;;;;;;5100775;27;19932;-77
2024/01/15 04:46:28;;;;;;;;;;;2.50;99.90;;;;;;5082330;28;19934;-75
2024/01/15 04:48:54;;;;;;;;;;;2.70;99.90;;;;;;5083973;27;19924;-77
2024/01/15 04:51:20;;;;;;;;;;;3.00;99.90;;;;;;5083539;28;19931;-76
2024/01/15 04:53:45;;;;;;;;;;;2.80;99.90;;;;;;5081552;28;19928;-76
2024/01/15 04:56:11;;;;;;;;;;;2.80;99.90;;;;;;5082921;27;20064;-76
2024/01/15 04:58:36;;;;;;;;;;;3.90;99.90;;;;;;5063958;28;20274;-77
2024/01/15 05:01:02;;;;;;;;;;;2.80;99.90;;;;;;5082862;28;19934;-77
2024/01/15 05:03:28;;;;;;;;;;;2.80;99.90;;;;;;5083012;28;19946;-77
2024/01/15 05:05:54;;;;;;;;;;;2.80;99.90;;;;;;5083606;28;19932;-76
2024/01/15 05:08:20;;;;;;;;;;;2.80;99.90;;;;;;5068026;28;19987;-77
2024/01/15 05:10:45;;;;;;;;;;;2.70;99.90;;;;;;5101339;27;19931;-77
2024/01/15 05:13:11;;;;;;;;;;;3.00;99.90;;;;;;5064847;28;19924;-76
2024/01/15 05:15:37;;;;;;;;;;;3.70;99.90;;;;;;5082569;28;20409;-77
2024/01/15 05:18:02;;;;;;;;;;;2.50;99.90;;;;;;5096797;27;19923;-77
2024/01/15 05:20:28;;;;;;;;;;;2.50;99.90;;;;;;5098239;28;19976;-77
2024/01/15 05:22:53;;;;;;;;;;;2.70;99.90;;;;;;5096903;28;20401;-77
2024/01/15 05:25:19;;;;;;;;;;;3.30;99.90;;;;;;5081951;28;20023;-77
2024/01/15 05:27:45;;;;;;;;;;;2.60;99.90;;;;;;5083600;28;20607;-77
2024/01/15 05:30:10;;;;;;;;;;;2.50;99.90;;;;;;5079342;28;19932;-78
2024/01/15 05:32:36;;;;;;;;;;;2.60;99.90;;;;;;5080501;28;19924;-77
2024/01/15 05:35:02;;;;;;;;;;;2.60;99.80;;;;;;5066653;28;19927;-77
2024/01/15 05:37:28;;;;;;;;;;;2.50;99.70;;;;;;5080260;28;19927;-76
2024/01/15 05:39:53;;;;;;;;;;;2.60;99.90;;;;;;5080660;28;20449;-75
2024/01/15 05:42:19;;;;;;;;;;;3.00;99.90;;;;;;5080126;28;20460;-76
2024/01/15 05:44:44;;;;;;;;;;;3.70;99.90;;;;;;5099700;28;19928;-76
2024/01/15 05:47:10;;;;;;;;;;;2.40;99.90;;;;;;5096739;28;19981;-78
2024/01/15 05:49:36;;;;;;;;;;;2.70;99.90;;;;;;5079634;28;19931;-75
2024/01/15 05:52:01;;;;;;;;;;;4.30;99.90;;;;;;5080861;28;20382;-76
2024/01/15 05:54:27;;;;;;;;;;;2.80;99.90;;;;;;5080167;28;19924;-76
2024/01/15 05:56:53;;;;;;;;;;;2.60;99.90;;;;;;5065162;28;19934;-76
2024/01/15 05:59:18;;;;;;;;;;;4.50;99.90;;;;;;5078680;28;20279;-76
2024/01/15 06:01:44;;;;;;;;;;;2.40;99.90;;;;;;5079420;28;20022;-76
2024/01/15 06:04:09;;;;;;;;;;;3.20;99.90;;;;;;5063414;28;20043;-75
2024/01/15 06:06:35;;;;;;;;;;;3.30;99.90;;;;;;5081441;28;19928;-74
2024/01/15 06:09:05;;;;;;;;;;;3.80;99.90;;;;;;5078956;28;20349;-76
2024/01/15 06:11:31;;;;;;;;;;;2.20;99.90;;;;;;5080267;28;19932;-75
2024/01/15 06:13:57;;;;;;;;;;;2.30;99.90;;;;;;5078864;28;19928;-80
2024/01/15 06:16:26;;;;;;;;;;;2.40;99.90;;;;;;5102136;27;20837;-79
2024/01/15 06:18:51;;;;;;;;;;;2.50;99.90;;;;;;5100835;27;19936;-79
2024/01/15 06:21:17;;;;;;;;;;;2.40;99.90;;;;;;5080788;28;19973;-80
2024/01/15 06:23:42;;;;;;;;;;;2.40;99.90;;;;;;5083558;28;19947;-80
2024/01/15 06:26:08;;;;;;;;;;;2.50;99.90;;;;;;5084664;28;20337;-79
2024/01/15 06:28:34;;;;;;;;;;;2.50;99.90;;;;;;5100115;27;20077;-79
2024/01/15 06:30:59;;;;;;;;;;;3.10;99.90;;;;;;5084210;28;19927;-82
2024/01/15 06:33:25;;;;;;;;;;;2.10;99.90;;;;;;5084329;28;19924;-79
2024/01/15 06:35:51;;;;;;;;;;;2.40;99.90;;;;;;5083345;28;20524;-81
2024/01/15 06:38:17;;;;;;;;;;;2.20;99.90;;;;;;5084618;28;19982;-78
2024/01/15 06:40:48;;;;;;;;;;;2.40;99.90;;;;;;5063354;28;20018;-79
2024/01/15 06:43:14;;;;;;;;;;;2.30;99.90;;;;;;5065558;28;20594;-79
2024/01/15 06:45:39;;;;;;;;;;;2.60;99.90;;;;;;5083623;28;19928;-79
2024/01/15 06:48:05;;;;;;;;;;;2.20;99.90;;;;;;5085431;28;19985;-78
2024/01/15 06:50:31;;;;;;;;;;;2.20;99.90;;;;;;5085358;28;20565;-78
2024/01/15 06:52:57;;;;;;;;;;;2.50;99.90;;;;;;5079896;28;19932;-75
2024/01/15 06:55:22;;;;;;;;;;;2.50;99.90;;;;;;5098059;27;19962;-76
2024/01/15 06:57:48;;;;;;;;;;;2.40;99.90;;;;;;5084383;27;20462;-76
2024/01/15 07:00:13;;;;;;;;;;;3.00;99.90;;;;;;5084918;28;19924;-75
2024/01/15 07:02:39;;;;;;;;;;;2.30;99.50;;;;;;5082939;28;20625;-76
2024/01/15 07:05:05;;;;;;;;;;;2.60;99.40;;;;;;5057601;28;20478;-74
2024/01/15 07:07:31;;;;;;;;;;;2.40;99.40;;;;;;5065732;28;19932;-76
2024/01/15 07:09:57;;;;;;;;;;;2.40;99.30;;;;;;5084666;28;20386;-76
2024/01/15 07:12:23;;;;;;;;;;;3.10;99.20;;;;;;5081834;27;19924;-80
2024/01/15 07:14:49;;;;;;;;;;;3.50;99.00;;;;;;5068032;28;20283;-78
2024/01/15 07:17:14;;;;;;;;;;;2.80;99.90;;;;;;5084187;28;20283;-80
2024/01/15 07:19:40;;;;;;;;;;;2.50;99.90;;;;;;5084479;27;19939;-79
2024/01/15 07:22:06;;;;;;;;;;;2.90;99.90;;;;;;5084805;28;20252;-80
2024/01/15 07:24:34;;;;;;;;;;;2.60;99.90;;;;;;5068722;28;19927;-79
2024/01/15 07:27:00;;;;;;;;;;;2.70;99.90;;;;;;5067928;28;19931;-79
2024/01/15 07:29:25;;;;;;;;;;;2.80;99.90;;;;;;5081794;28;19928;-77
2024/01/15 07:31:51;;;;;;;;;;;2.40;99.90;;;;;;5083409;28;20469;-76
2024/01/15 07:34:18;;;;;;;;;;;2.30;99.90;;;;;;5097584;28;22086;-76
2024/01/15 07:36:46;;;;;;;;;;;2.00;99.90;;;;;;5067007;28;20018;-76
2024/01/15 07:39:12;;;;;;;;;;;1.90;99.90;;;;;;5083898;28;19928;-77
2024/01/15 07:41:37;;;;;;;;;;;2.30;99.90;;;;;;5066842;28;20512;-77
2024/01/15 07:44:03;;;;;;;;;;;2.40;99.90;;;;;;5101736;28;19950;-77
2024/01/15 07:46:29;;;;;;;;;;;2.30;99.90;;;;;;5082198;28;20437;-76
2024/01/15 07:48:57;;;;;;;;;;;2.30;99.90;;;;;;5083961;27;20022;-77
2024/01/15 07:51:23;;;;;;;;;;;2.30;99.90;;;;;;5083267;28;19935;-76
2024/01/15 07:53:49;;;;;;;;;;;2.30;99.90;;;;;;5082961;28;20579;-77
2024/01/15 07:56:15;;;;;;;;;;;2.30;99.90;;;;;;5084220;28;20390;-77
2024/01/15 07:58:41;;;;;;;;;;;1.90;99.90;;;;;;5085100;28;19928;-76
2024/01/15 08:01:07;;;;;;;;;;;2.10;99.90;;;;;;5081716;28;20289;-77
2024/01/15 08:03:33;;;;;;;;;;;2.40;99.90;;;;;;5082246;28;20403;-76
2024/01/15 08:06:05;;;;;;;;;;;2.20;99.90;;;;;;5084553;28;20341;-76
2024/01/15 08:08:30;;;;;;;;;;;2.40;99.90;;;;;;5082261;28;19936;-76
2024/01/15 08:10:56;;;;;;;;;;;2.50;99.90;;;;;;5081929;28;20366;-76
2024/01/15 08:13:21;;;;;;;;;;;3.30;99.90;;;;;;5081764;28;19928;-77
2024/01/15 08:15:47;;;;;;;;;;;2.80;99.90;;;;;;5082124;28;21099;-76
2024/01/15 08:18:13;;;;;;;;;;;2.40;99.90;;;;;;5083850;28;19928;-77
2024/01/15 08:20:44;;;;;;;;;;;2.50;99.90;;;;;;5050069;27;20014;-77
2024/01/15 08:23:10;;;;;;;;;;;2.40;99.90;;;;;;5081825;28;19932;-75
2024/01/15 08:25:35;;;;;;;;;;;2.50;99.90;;;;;;5084329;28;19924;-78
2024/01/15 08:28:01;;;;;;;;;;;2.60;99.90;;;;;;5067381;28;19985;-76
2024/01/15 08:30:27;;;;;;;;;;;2.50;99.90;;;;;;5067095;28;20281;-77
2024/01/15 08:32:53;;;;;;;;;;;3.90;99.90;;;;;;5066692;28;20722;-77
2024/01/15 08:35:22;;;;;;;;;;;2.70;99.90;;;;;;5098162;28;19927;-77
2024/01/15 08:37:54;;;;;;;;;;;2.60;99.90;;;;;;5080697;28;19936;-76
2024/01/15 08:40:19;;;;;;;;;;;2.50;99.90;;;;;;5083786;28;19939;-77
2024/01/15 08:42:45;;;;;;;;;;;2.50;99.90;;;;;;5102342;28;20075;-75
2024/01/15 08:45:11;;;;;;;;;;;2.80;99.90;;;;;;5081798;28;19927;-77
2024/01/15 08:47:37;;;;;;;;;;;2.40;99.90;;;;;;5101368;28;20405;-77
2024/01/15 08:50:03;;;;;;;;;;;2.70;99.90;;;;;;5083111;28;19934;-77
2024/01/15 08:52:29;;;;;;;;;;;2.80;99.90;;;;;;5095302;28;20107;-77
2024/01/15 08:54:56;;;;;;;;;;;2.80;99.90;;;;;;5103787;28;20062;-76
2024/01/15 08:57:22;;;;;;;;;;;3.90;99.90;;;;;;5083144;28;19923;-76
2024/01/15 08:59:47;;;;;;;;;;;2.70;99.90;;;;;;5079227;28;19968;-76
2024/01/15 09:02:13;;;;;;;;;;;2.80;99.80;;;;;;5084163;28;19924;-76
2024/01/15 09:04:39;;;;;;;;;;;2.90;99.30;;;;;;5068201;28;20443;-76
2024/01/15 09:07:08;;;;;;;;;;;2.20;99.40;;;;;;5090291;28;19928;-76
2024/01/15 09:09:34;;;;;;;;;;;2.40;99.90;;;;;;5081451;28;19946;-76
2024/01/15 09:12:00;;;;;;;;;;;2.40;99.90;;;;;;5083219;28;19927;-75
2024/01/15 09:14:26;;;;;;;;;;;2.90;99.90;;;;;;5102519;28;20359;-77
2024/01/15 09:16:52;;;;;;;;;;;2.50;99.90;;;;;;5083268;28;20397;-76
2024/01/15 09:19:18;;;;;;;;;;;2.50;99.90;;;;;;5066327;28;19927;-76
2024/01/15 09:21:44;;;;;;;;;;;2.60;99.90;;;;;;5084335;28;19977;-76
2024/01/15 09:24:11;;;;;;;;;;;2.50;99.90;;;;;;5082687;28;20036;-76
2024/01/15 09:26:37;;;;;;;;;;;2.60;99.90;;;;;;5081604;28;19928;-77
2024/01/15 09:29:02;;;;;;;;;;;2.90;99.90;;;;;;5065673;28;20259;-77
2024/01/15 09:31:28;;;;;;;;;;;3.00;99.90;;;;;;5082226;28;19935;-77
2024/01/15 09:33:56;;;;;;;;;;;3.10;99.90;;;;;;5082537;28;20438;-77
2024/01/15 09:36:22;;;;;;;;;;;3.50;99.90;;;;;;5072735;28;19927;-77
2024/01/15 09:38:48;;;;;;;;;;;3.60;98.30;;;;;;5083294;28;19924;-78
2024/01/15 09:41:14;;;;;;;;;;;3.50;98.00;;;;;;5083249;28;19924;-76
2024/01/15 09:43:40;;;;;;;;;;;3.40;98.00;;;;;;5100521;28;20392;-77
2024/01/15 09:46:05;;;;;;;;;;;2.90;98.70;;;;;;5102938;28;19935;-77
2024/01/15 09:48:34;;;;;;;;;;;3.00;99.40;;;;;;5084015;28;19928;-77
2024/01/15 09:51:01;;;;;;;;;;;2.90;99.90;;;;;;5070815;28;19927;-76
2024/01/15 09:53:26;;;;;;;;;;;3.00;99.90;;;;;;5102203;27;21333;-77
2024/01/15 09:55:52;;;;;;;;;;;3.00;99.90;;;;;;5087354;28;19966;-78
2024/01/15 09:58:18;;;;;;;;;;;2.60;99.90;;;;;;5102512;27;19924;-78
2024/01/15 10:00:44;;;;;;;;;;;2.60;99.90;;;;;;5088462;28;19967;-74
2024/01/15 10:03:11;;;;;;;;;;;2.30;99.90;;;;;;5069828;27;19931;-82
2024/01/15 10:05:37;;;;;;;;;;;2.40;99.90;;;;;;5090870;28;19928;-81
2024/01/15 10:08:04;;;;;;;;;;;2.30;99.90;;;;;;5085637;28;19924;-80
2024/01/15 10:10:29;;;;;;;;;;;2.20;99.90;;;;;;5104865;27;20095;-81
2024/01/15 10:12:55;;;;;;;;;;;2.50;99.90;;;;;;5086479;28;20467;-79
2024/01/15 10:15:26;;;;;;;;;;;2.20;99.90;;;;;;5093176;28;20440;-86
2024/01/15 10:17:52;;;;;;;;;;;2.40;99.90;;;;;;5090608;28;19927;-78
2024/01/15 10:20:17;;;;;;;;;;;3.80;99.90;;;;;;5099918;27;20295;-80
2024/01/15 10:22:43;;;;;;;;;;;2.40;99.90;;;;;;5081439;28;20374;-80
2024/01/15 10:25:10;;;;;;;;;;;2.40;99.90;;;;;;5104063;28;19934;-80
2024/01/15 10:27:35;;;;;;;;;;;2.40;99.90;;;;;;5089035;28;19927;-82
2024/01/15 10:30:02;;;;;;;;;;;3.90;99.90;;;;;;5085579;28;20469;-77
2024/01/15 10:32:28;;;;;;;;;;;2.70;99.90;;;;;;5103165;27;19931;-79
2024/01/15 10:34:54;;;;;;;;;;;2.80;99.90;;;;;;5050762;28;19928;-80
2024/01/15 10:37:20;;;;;;;;;;;2.60;99.90;;;;;;5088360;27;20352;-80
2024/01/15 10:39:50;;;;;;;;;;;3.10;99.90;;;;;;5086589;28;20316;-78
2024/01/15 10:42:17;;;;;;;;;;;2.60;99.90;;;;;;5071194;28;19931;-81
2024/01/15 10:44:43;;;;;;;;;;;2.60;99.90;;;;;;5085531;28;19928;-79
2024/01/15 10:47:09;;;;;;;;;;;2.70;99.90;;;;;;5101383;28;19954;-79
2024/01/15 10:49:35;;;;;;;;;;;2.70;99.90;;;;;;5084272;28;19924;-81
2024/01/15 10:52:01;;;;;;;;;;;2.80;99.90;;;;;;5087439;28;19938;-80
2024/01/15 10:54:27;;;;;;;;;;;2.60;99.90;;;;;;5068069;27;20310;-81
2024/01/15 10:56:53;;;;;;;;;;;3.20;99.90;;;;;;5069914;28;19938;-78
2024/01/15 10:59:22;;;;;;;;;;;2.50;99.90;;;;;;5099719;28;19928;-78
2024/01/15 11:01:49;;;;;;;;;;;2.50;99.90;;;;;;5083835;28;19935;-78
2024/01/15 11:04:16;;;;;;;;;;;2.50;99.90;;;;;;5101438;28;20279;-77
2024/01/15 11:06:43;;;;;;;;;;;2.40;99.90;;;;;;5082296;28;19971;-79
2024/01/15 11:09:09;;;;;;;;;;;2.50;99.90;;;;;;5086057;28;19977;-81
2024/01/15 11:11:35;;;;;;;;;;;2.70;99.90;;;;;;5086412;28;19928;-80
2024/01/15 11:14:01;;;;;;;;;;;3.80;99.90;;;;;;5100607;28;19938;-79
2024/01/15 11:16:46;;;;;;;;;;;2.90;99.90;;;;;;5066583;28;19919;-75
2024/01/15 11:19:12;;;;;;;;;;;3.10;99.90;;;;;;5066820;27;20036;-79
2024/01/15 11:21:47;;;;;;;;;;;3.40;99.90;;;;;;5084481;28;19932;-80
2024/01/15 11:24:32;;;;;;;;;;;2.50;99.30;;;;;;5098696;28;20427;-77
2024/01/15 11:26:58;;;;;;;;;;;3.40;97.80;;;;;;5084347;28;20398;-77
2024/01/15 11:29:27;;;;;;;;;;;3.50;97.20;;;;;;5082459;28;19931;-79
2024/01/15 11:31:55;;;;;;;;;;;3.60;96.50;;;;;;5088271;28;19924;-80
2024/01/15 11:34:21;;;;;;;;;;;3.60;95.80;;;;;;5087682;28;19931;-82
2024/01/15 11:36:53;;;;;;;;;;;3.80;96.30;;;;;;5084380;27;19938;-78
2024/01/15 11:39:28;;;;;;;;;;;3.80;95.90;;;;;;5086138;28;19927;-79
2024/01/15 11:42:03;;;;;;;;;;;3.90;96.00;;;;;;5082575;28;20165;-77
2024/01/15 11:44:30;;;;;;;;;;;3.90;96.40;;;;;;5066077;28;19932;-77
2024/01/15 11:47:06;;;;;;;;;;;3.70;94.70;;;;;;5084123;27;20370;-77
2024/01/15 11:49:37;;;;;;;;;;;3.90;93.50;;;;;;5081379;28;20048;-76
2024/01/15 11:52:04;;;;;;;;;;;3.90;94.70;;;;;;5082909;28;20111;-76
2024/01/15 11:54:32;;;;;;;;;;;3.70;95.30;;;;;;5082876;28;19928;-77
2024/01/15 11:57:00;;;;;;;;;;;3.70;95.70;;;;;;5084747;28;19932;-76
2024/01/15 11:59:26;;;;;;;;;;;4.20;96.50;;;;;;5081962;27;19935;-77
2024/01/15 12:01:52;;;;;;;;;;;4.00;95.20;;;;;;5081447;28;19928;-77
2024/01/15 12:04:20;;;;;;;;;;;3.70;95.70;;;;;;5084312;28;19932;-77
2024/01/15 12:06:46;;;;;;;;;;;3.70;96.30;;;;;;5065118;28;19931;-81
2024/01/15 12:09:11;;;;;;;;;;;3.70;95.70;;;;;;5065474;28;20132;-75
2024/01/15 12:11:38;;;;;;;;;;;3.90;94.70;;;;;;5082598;28;20377;-76
2024/01/15 12:14:05;;;;;;;;;;;3.80;93.30;;;;;;5095514;27;19966;-75
2024/01/15 12:16:30;;;;;;;;;;;3.80;93.30;;;;;;5065163;28;20437;-76
2024/01/15 12:18:56;;;;;;;;;;;3.70;91.60;;;;;;5050488;28;19924;-76
2024/01/15 12:21:21;;;;;;;;;;;3.70;93.30;;;;;;5100190;27;19934;-76
2024/01/15 12:23:48;;;;;;;;;;;3.80;90.90;;;;;;5083586;28;19928;-76
2024/01/15 12:26:15;;;;;;;;;;;3.60;93.50;;;;;;5100139;28;19951;-76
2024/01/15 12:28:40;;;;;;;;;;;3.80;94.20;;;;;;5067534;28;19938;-75
2024/01/15 12:31:06;;;;;;;;;;;3.50;95.80;;;;;;5097294;27;19931;-76
2024/01/15 12:33:33;;;;;;;;;;;3.50;95.00;;;;;;5083530;28;20309;-76
2024/01/15 12:35:58;;;;;;;;;;;3.90;94.10;;;;;;5063323;28;19936;-79
2024/01/15 12:38:24;;;;;;;;;;;3.60;95.20;;;;;;5083398;28;19930;-81
2024/01/15 12:40:49;;;;;;;;;;;4.20;94.00;;;;;;5048208;28;20484;-80
2024/01/15 12:43:15;;;;;;;;;;;3.60;93.20;;;;;;5079964;28;19928;-79
2024/01/15 12:45:41;;;;;;;;;;;3.60;92.70;;;;;;5083796;28;20000;-81
2024/01/15 12:48:06;;;;;;;;;;;3.50;91.40;;;;;;5066988;28;19976;-79
2024/01/15 12:50:33;;;;;;;;;;;5.10;93.30;;;;;;5084909;28;20033;-80
2024/01/15 12:52:59;;;;;;;;;;;4.20;92.70;;;;;;5081589;28;19970;-81
2024/01/15 12:55:25;;;;;;;;;;;3.70;93.20;;;;;;5080970;27;19963;-80
2024/01/15 12:57:54;;;;;;;;;;;3.80;92.80;;;;;;5085002;28;20417;-82
2024/01/15 13:00:20;;;;;;;;;;;3.70;93.60;;;;;;5081904;27;19981;-79
2024/01/15 13:02:46;;;;;;;;;;;3.80;93.20;;;;;;5084859;28;19932;-82
2024/01/15 13:05:12;;;;;;;;;;;4.40;91.30;;;;;;5081362;28;20379;-75
2024/01/15 13:07:38;;;;;;;;;;;3.90;92.20;;;;;;5099698;28;19934;-76
2024/01/15 13:10:04;;;;;;;;;;;3.90;91.30;;;;;;5082558;28;19924;-76
2024/01/15 13:12:30;;;;;;;;;;;3.80;90.40;;;;;;5082991;28;21679;-76
2024/01/15 13:14:58;;;;;;;;;;;3.70;83.10;;;;;;5077750;28;19967;-75
2024/01/15 13:17:23;;;;;;;;;;;3.80;86.20;;;;;;5098390;28;20266;-76
2024/01/15 13:19:49;;;;;;;;;;;3.90;82.60;;;;;;5083476;28;20058;-75
2024/01/15 13:22:15;;;;;;;;;;;4.00;89.80;;;;;;5082039;28;20519;-78
2024/01/15 13:24:41;;;;;;;;;;;3.90;90.60;;;;;;5080742;28;19974;-79
2024/01/15 13:27:08;;;;;;;;;;;3.90;90.40;;;;;;5068475;28;19959;-77
2024/01/15 13:29:33;;;;;;;;;;;3.60;90.70;;;;;;5082573;28;20032;-76
2024/01/15 13:31:59;;;;;;;;;;;3.70;92.90;;;;;;5067025;28;20361;-76
2024/01/15 13:34:24;;;;;;;;;;;3.50;93.60;;;;;;5065671;28;19985;-76
2024/01/15 13:36:50;;;;;;;;;;;3.00;94.40;;;;;;5066915;28;19935;-75
2024/01/15 13:39:19;;;;;;;;;;;2.80;95.20;;;;;;5084867;28;19983;-76
2024/01/15 13:41:46;;;;;;;;;;;2.60;95.90;;;;;;5082575;28;20875;-74
2024/01/15 13:44:12;;;;;;;;;;;4.20;97.20;;;;;;5080384;28;20128;-75
2024/01/15 13:46:38;;;;;;;;;;;2.50;97.20;;;;;;5082362;28;19928;-76
2024/01/15 13:49:05;;;;;;;;;;;4.20;98.30;;;;;;5083922;28;20224;-75
2024/01/15 13:51:31;;;;;;;;;;;2.40;98.20;;;;;;5100627;28;19939;-77
2024/01/15 13:53:57;;;;;;;;;;;2.60;98.90;;;;;;5068867;28;20378;-76
2024/01/15 13:56:30;;;;;;;;;;;2.50;99.10;;;;;;5065633;28;20109;-76
2024/01/15 13:58:56;;;;;;;;;;;2.50;99.90;;;;;;5095299;28;20389;-74
2024/01/15 14:01:21;;;;;;;;;;;2.90;99.20;;;;;;5058211;28;20057;-74
2024/01/15 14:03:47;;;;;;;;;;;2.80;98.70;;;;;;5081942;28;19927;-74
2024/01/15 14:06:13;;;;;;;;;;;2.90;98.90;;;;;;5082722;28;20389;-74
2024/01/15 14:08:38;;;;;;;;;;;2.80;98.60;;;;;;5101567;28;19924;-74
2024/01/15 14:11:05;;;;;;;;;;;3.50;99.00;;;;;;5081692;28;20459;-74
2024/01/15 14:13:31;;;;;;;;;;;3.20;99.30;;;;;;5066035;28;19932;-74
2024/01/15 14:15:57;;;;;;;;;;;3.20;99.90;;;;;;5079401;28;21175;-74
2024/01/15 14:18:23;;;;;;;;;;;4.00;99.90;;;;;;5082265;28;19935;-75
2024/01/15 14:20:48;;;;;;;;;;;3.10;99.90;;;;;;5063622;28;20443;-75
2024/01/15 14:23:14;;;;;;;;;;;3.00;99.90;;;;;;5080926;28;19939;-75
2024/01/15 14:25:40;;;;;;;;;;;3.00;99.90;;;;;;5082538;28;20405;-74